Sherwood, Michigan
Current Conditions -  °F | °C
As of 5:54 AM on Saturday 25 Oct 2014 (Local Time) from KOEB Reporting Station
Broken Clouds Broken Clouds  
Wind Chill: 53°   Ceiling: 5000
Heat Index: 53°   Visibility: 7mi
Dew Point: 51°   Wind: 7mph
Humidity: 92%   Direction: 230°SW
Pressure: 29.88"   Gusts: NA
Location:  42°N, 85.24°W
Report Text: KOEB 250954Z AUTO 23006KT 7SM SCT040 SCT046 BKN050 12/11 A2988 RMK AO2 T01170105
Loading
Personal Weather Stations






























Interactive Weather Map
Tropical Storm Tracking
New forecast layout! Learn more

10-Day Weather Forecast

Advertisements
Track Severe Weather on mobile